Time;durP1;ratioP1;P1;durP2;ratioP2;P2;SDS_P1;SDS_P2;PMS_P1;PMS_P2;Temp;Humidity;BMP_temperature;BMP_pressure;BME280_temperature;BME280_humidity;BME280_pressure;Samples;Min_cycle;Max_cycle;Signal;HPM_P1;HPM_P2
2023/02/03 00:00:05;;;;;;;19.40;6.23;;;;;;;;;;5044114;28;20419;-77
2023/02/03 00:02:31;;;;;;;13.80;6.47;;;;;;;;;;5040640;28;20048;-78
2023/02/03 00:04:57;;;;;;;14.87;5.43;;;;;;;;;;5027012;28;20454;-77
2023/02/03 00:07:23;;;;;;;17.13;6.63;;;;;;;;;;5041269;28;20094;-76
2023/02/03 00:09:52;;;;;;;16.60;5.83;;;;;;;;;;5042540;28;20468;-77
2023/02/03 00:12:18;;;;;;;13.70;6.27;;;;;;;;;;5025882;28;20079;-77
2023/02/03 00:14:44;;;;;;;13.27;6.43;;;;;;;;;;5026635;28;20412;-78
2023/02/03 00:17:11;;;;;;;13.57;6.17;;;;;;;;;;5038536;28;20072;-78
2023/02/03 00:19:37;;;;;;;13.47;5.50;;;;;;;;;;5024648;28;20475;-77
2023/02/03 00:22:03;;;;;;;13.53;6.93;;;;;;;;;;5027212;28;20035;-76
2023/02/03 00:24:29;;;;;;;11.90;5.57;;;;;;;;;;5042839;28;20034;-77
2023/02/03 00:26:55;;;;;;;22.40;6.10;;;;;;;;;;5042030;28;20029;-77
2023/02/03 00:29:24;;;;;;;14.53;5.53;;;;;;;;;;5044235;28;20499;-77
2023/02/03 00:31:52;;;;;;;12.63;4.60;;;;;;;;;;5044621;28;20025;-78
2023/02/03 00:34:19;;;;;;;16.07;4.63;;;;;;;;;;5025510;28;20361;-76
2023/02/03 00:36:48;;;;;;;33.20;5.67;;;;;;;;;;5044554;28;20029;-77
2023/02/03 00:39:15;;;;;;;11.57;4.70;;;;;;;;;;5043584;28;20029;-77
2023/02/03 00:41:43;;;;;;;16.67;5.20;;;;;;;;;;5026588;28;20036;-75
2023/02/03 00:44:09;;;;;;;19.27;6.13;;;;;;;;;;5028779;28;20043;-76
2023/02/03 00:46:38;;;;;;;14.93;4.73;;;;;;;;;;5024581;28;20120;-78
2023/02/03 00:49:04;;;;;;;16.27;4.53;;;;;;;;;;5042326;28;20033;-78
2023/02/03 00:51:31;;;;;;;12.93;4.97;;;;;;;;;;5041506;28;20102;-77
2023/02/03 00:53:57;;;;;;;15.97;4.70;;;;;;;;;;5041075;28;20039;-77
2023/02/03 00:56:23;;;;;;;17.07;4.00;;;;;;;;;;5043081;28;20029;-76
2023/02/03 00:58:49;;;;;;;13.30;4.53;;;;;;;;;;5043351;28;20053;-77
2023/02/03 01:01:15;;;;;;;11.13;3.43;;;;;;;;;;5030339;28;20040;-77
2023/02/03 01:03:43;;;;;;;12.47;4.13;;;;;;;;;;5025790;28;20026;-76
2023/02/03 01:06:09;;;;;;;13.53;3.47;;;;;;;;;;5028999;28;20116;-76
2023/02/03 01:08:35;;;;;;;15.20;4.03;;;;;;;;;;5039600;28;20119;-76
2023/02/03 01:11:08;;;;;;;16.40;4.33;;;;;;;;;;5028520;28;20044;-76
2023/02/03 01:13:34;;;;;;;15.43;4.60;;;;;;;;;;5042623;28;20029;-77
2023/02/03 01:16:00;;;;;;;11.67;3.37;;;;;;;;;;5045003;28;20116;-77
2023/02/03 01:18:26;;;;;;;10.97;4.97;;;;;;;;;;5041099;28;20546;-76
2023/02/03 01:20:52;;;;;;;13.40;3.77;;;;;;;;;;5045507;28;20038;-78
2023/02/03 01:23:18;;;;;;;10.77;3.60;;;;;;;;;;5041663;28;20366;-78
2023/02/03 01:25:44;;;;;;;14.23;3.87;;;;;;;;;;5042897;28;20481;-77
2023/02/03 01:28:10;;;;;;;11.10;3.37;;;;;;;;;;5042810;28;20034;-77
2023/02/03 01:30:36;;;;;;;14.13;4.27;;;;;;;;;;5043758;28;20052;-76
2023/02/03 01:33:02;;;;;;;11.77;3.43;;;;;;;;;;5029718;28;20037;-77
2023/02/03 01:35:28;;;;;;;11.60;3.63;;;;;;;;;;5032648;28;20129;-77
2023/02/03 01:37:54;;;;;;;10.93;3.83;;;;;;;;;;5046253;28;20037;-77
2023/02/03 01:40:20;;;;;;;12.27;4.10;;;;;;;;;;5043631;28;21678;-77
2023/02/03 01:42:49;;;;;;;15.70;4.57;;;;;;;;;;5043456;28;20051;-77
2023/02/03 01:45:15;;;;;;;11.10;3.37;;;;;;;;;;5046956;28;20045;-77
2023/02/03 01:47:59;;;;;;;17.20;4.30;;;;;;;;;;5045019;28;20037;-77
2023/02/03 01:50:31;;;;;;;12.33;3.67;;;;;;;;;;5045425;28;20052;-78
2023/02/03 01:53:06;;;;;;;13.80;3.30;;;;;;;;;;5029386;28;20087;-78
2023/02/03 01:55:35;;;;;;;15.67;3.30;;;;;;;;;;5027310;28;20022;-76
2023/02/03 01:58:13;;;;;;;10.23;2.80;;;;;;;;;;5045000;28;20116;-76
2023/02/03 02:00:39;;;;;;;13.07;3.57;;;;;;;;;;5040934;28;20092;-77
2023/02/03 02:03:06;;;;;;;11.60;3.10;;;;;;;;;;5046461;28;20469;-76
2023/02/03 02:05:38;;;;;;;10.50;3.33;;;;;;;;;;5045373;28;20029;-77
2023/02/03 02:08:05;;;;;;;9.57;2.78;;;;;;;;;;5043178;28;20103;-78
2023/02/03 02:10:32;;;;;;;12.53;3.13;;;;;;;;;;5042883;28;20034;-76
2023/02/03 02:13:01;;;;;;;9.73;2.90;;;;;;;;;;5025923;28;20121;-78
2023/02/03 02:15:43;;;;;;;11.03;2.90;;;;;;;;;;5028533;28;20358;-77
2023/02/03 02:18:15;;;;;;;10.32;2.70;;;;;;;;;;5044309;28;20022;-78
2023/02/03 02:20:55;;;;;;;11.20;3.28;;;;;;;;;;5045362;28;20037;-77
2023/02/03 02:23:40;;;;;;;9.63;3.13;;;;;;;;;;5045605;28;20025;-78
2023/02/03 02:26:25;;;;;;;12.57;3.40;;;;;;;;;;5029218;28;20025;-78
2023/02/03 02:29:02;;;;;;;9.77;2.60;;;;;;;;;;5044739;28;20040;-78
2023/02/03 02:31:34;;;;;;;12.37;2.73;;;;;;;;;;5043910;28;20034;-77
2023/02/03 02:34:19;;;;;;;9.13;3.42;;;;;;;;;;5044178;28;20053;-77
2023/02/03 02:36:55;;;;;;;11.87;3.53;;;;;;;;;;5029582;28;20029;-76
2023/02/03 02:39:20;;;;;;;10.77;2.90;;;;;;;;;;5042203;28;20087;-78
2023/02/03 02:41:52;;;;;;;11.80;2.80;;;;;;;;;;5041731;28;20025;-77
2023/02/03 02:44:24;;;;;;;11.43;3.00;;;;;;;;;;5036536;28;20068;-78
2023/02/03 02:46:55;;;;;;;9.33;2.97;;;;;;;;;;5037620;28;20029;-77
2023/02/03 02:49:34;;;;;;;7.90;3.20;;;;;;;;;;5060734;28;20450;-78
2023/02/03 02:52:02;;;;;;;13.93;3.00;;;;;;;;;;5037200;28;20087;-78
2023/02/03 02:54:30;;;;;;;8.50;3.13;;;;;;;;;;5036403;28;20049;-77
2023/02/03 02:56:58;;;;;;;9.27;3.73;;;;;;;;;;5036538;28;20025;-77
2023/02/03 02:59:24;;;;;;;15.87;3.53;;;;;;;;;;5036232;28;20640;-78
2023/02/03 03:01:50;;;;;;;5.90;3.00;;;;;;;;;;5036553;28;20560;-78
2023/02/03 03:04:18;;;;;;;10.17;4.03;;;;;;;;;;5046650;28;20388;-77
2023/02/03 03:06:45;;;;;;;12.97;3.90;;;;;;;;;;5055687;28;20068;-77
2023/02/03 03:09:15;;;;;;;10.40;3.37;;;;;;;;;;5032875;28;20030;-77
2023/02/03 03:11:44;;;;;;;7.03;3.27;;;;;;;;;;5070759;28;20738;-78
2023/02/03 03:14:11;;;;;;;7.80;2.83;;;;;;;;;;5036069;28;20025;-77
2023/02/03 03:16:38;;;;;;;9.63;3.63;;;;;;;;;;5037567;28;20091;-76
2023/02/03 03:19:06;;;;;;;8.00;3.07;;;;;;;;;;5046720;28;20071;-77
2023/02/03 03:21:40;;;;;;;8.17;3.13;;;;;;;;;;5036156;28;20033;-76
2023/02/03 03:24:12;;;;;;;12.37;2.90;;;;;;;;;;5036006;28;20033;-77
2023/02/03 03:26:47;;;;;;;11.23;3.20;;;;;;;;;;5036597;28;20072;-76
2023/02/03 03:29:34;;;;;;;11.30;3.73;;;;;;;;;;5036945;28;20033;-77
2023/02/03 03:32:00;;;;;;;12.57;3.47;;;;;;;;;;5036898;28;20453;-77
2023/02/03 03:34:28;;;;;;;8.97;3.00;;;;;;;;;;5038443;28;20022;-77
2023/02/03 03:37:01;;;;;;;11.23;3.77;;;;;;;;;;5035713;28;20033;-78
2023/02/03 03:39:42;;;;;;;10.15;3.20;;;;;;;;;;5035967;28;20104;-77
2023/02/03 03:42:24;;;;;;;8.33;3.30;;;;;;;;;;5035352;28;20033;-77
2023/02/03 03:44:56;;;;;;;11.35;3.22;;;;;;;;;;5035454;28;20069;-78
2023/02/03 03:47:30;;;;;;;9.80;3.35;;;;;;;;;;5036262;28;20469;-78
2023/02/03 03:49:58;;;;;;;8.23;3.20;;;;;;;;;;5043408;28;20171;-77
2023/02/03 03:52:28;;;;;;;12.40;3.93;;;;;;;;;;5043713;28;20438;-77
2023/02/03 03:54:55;;;;;;;8.73;3.47;;;;;;;;;;5035178;28;20036;-78
2023/02/03 03:57:26;;;;;;;14.83;3.93;;;;;;;;;;5035213;28;20037;-77
2023/02/03 03:59:55;;;;;;;11.27;3.27;;;;;;;;;;5035262;28;20032;-79
2023/02/03 04:02:22;;;;;;;15.33;3.43;;;;;;;;;;5035168;28;20036;-77
2023/02/03 04:04:49;;;;;;;8.10;3.60;;;;;;;;;;5035033;28;20057;-78
2023/02/03 04:07:15;;;;;;;10.33;3.53;;;;;;;;;;5034860;28;20101;-78
2023/02/03 04:09:41;;;;;;;8.27;3.23;;;;;;;;;;5034947;28;20029;-78
2023/02/03 04:12:34;;;;;;;9.73;3.03;;;;;;;;;;5031705;28;20030;-78
2023/02/03 04:15:00;;;;;;;12.02;3.33;;;;;;;;;;5048812;28;20127;-78
2023/02/03 04:17:26;;;;;;;11.73;2.57;;;;;;;;;;5034954;28;20391;-77
2023/02/03 04:19:51;;;;;;;10.07;3.40;;;;;;;;;;5026429;28;20030;-77
2023/02/03 04:22:17;;;;;;;7.10;2.80;;;;;;;;;;5042645;28;20041;-77
2023/02/03 04:24:43;;;;;;;8.80;2.63;;;;;;;;;;5041173;28;20442;-77
2023/02/03 04:27:09;;;;;;;13.57;4.07;;;;;;;;;;5041839;28;20029;-77
2023/02/03 04:29:35;;;;;;;9.93;3.50;;;;;;;;;;5041510;28;20091;-77
2023/02/03 04:32:01;;;;;;;10.60;3.00;;;;;;;;;;5042758;28;20053;-77
2023/02/03 04:34:30;;;;;;;11.67;3.77;;;;;;;;;;5024570;28;20894;-76
2023/02/03 04:36:56;;;;;;;8.10;2.47;;;;;;;;;;5043312;28;20038;-77
2023/02/03 04:39:24;;;;;;;12.47;2.93;;;;;;;;;;5044214;28;20112;-77
2023/02/03 04:41:50;;;;;;;8.00;2.93;;;;;;;;;;5043772;28;20033;-77
2023/02/03 04:44:16;;;;;;;12.83;2.93;;;;;;;;;;5040137;28;20037;-78
2023/02/03 04:46:42;;;;;;;10.83;2.87;;;;;;;;;;5043028;28;20041;-76
2023/02/03 04:49:10;;;;;;;11.47;3.40;;;;;;;;;;5042511;28;20033;-78
2023/02/03 04:51:38;;;;;;;10.77;3.00;;;;;;;;;;5042177;28;20388;-76
2023/02/03 04:54:04;;;;;;;12.47;2.23;;;;;;;;;;5040669;28;20094;-77
2023/02/03 04:56:30;;;;;;;13.93;2.80;;;;;;;;;;5041062;28;20037;-75
2023/02/03 04:58:56;;;;;;;6.20;2.30;;;;;;;;;;5042370;28;20025;-78
2023/02/03 05:01:22;;;;;;;10.20;2.67;;;;;;;;;;5040590;28;20044;-77
2023/02/03 05:03:48;;;;;;;10.80;2.90;;;;;;;;;;5026847;28;20450;-76
2023/02/03 05:06:14;;;;;;;7.60;2.17;;;;;;;;;;5041736;28;20090;-77
2023/02/03 05:08:40;;;;;;;10.73;2.90;;;;;;;;;;5042876;28;20055;-76
2023/02/03 05:11:08;;;;;;;14.33;2.37;;;;;;;;;;5041525;28;20037;-77
2023/02/03 05:13:34;;;;;;;11.00;3.17;;;;;;;;;;5042086;28;20071;-76
2023/02/03 05:16:00;;;;;;;6.83;2.63;;;;;;;;;;5045127;28;20053;-77
2023/02/03 05:18:26;;;;;;;10.33;2.60;;;;;;;;;;5039321;28;20172;-77
2023/02/03 05:20:52;;;;;;;10.00;2.43;;;;;;;;;;5043728;28;20040;-77
2023/02/03 05:23:18;;;;;;;9.17;2.93;;;;;;;;;;5042142;28;20037;-77
2023/02/03 05:25:44;;;;;;;9.63;2.73;;;;;;;;;;5040482;28;20034;-76
2023/02/03 05:28:10;;;;;;;19.43;3.30;;;;;;;;;;5027226;28;20030;-76
2023/02/03 05:30:36;;;;;;;8.73;2.63;;;;;;;;;;5041450;28;20111;-77
2023/02/03 05:33:02;;;;;;;12.33;3.27;;;;;;;;;;5040756;28;20030;-76
2023/02/03 05:35:28;;;;;;;7.83;2.33;;;;;;;;;;5041162;28;20032;-77
2023/02/03 05:37:54;;;;;;;4.87;2.03;;;;;;;;;;5039811;28;20021;-78
2023/02/03 05:43:05;;;;;;;13.50;3.93;;;;;;;;;;5025931;28;20072;-75
2023/02/03 05:45:31;;;;;;;15.43;2.63;;;;;;;;;;5046628;28;20434;-77
2023/02/03 05:47:57;;;;;;;7.70;2.07;;;;;;;;;;5041472;28;20041;-76
2023/02/03 05:50:23;;;;;;;8.00;2.50;;;;;;;;;;5042478;28;20041;-78
2023/02/03 05:52:49;;;;;;;13.40;3.37;;;;;;;;;;5040026;28;21508;-77
2023/02/03 05:55:15;;;;;;;5.47;2.17;;;;;;;;;;5039390;28;20040;-77
2023/02/03 05:57:41;;;;;;;14.40;2.47;;;;;;;;;;5042361;28;20033;-76
2023/02/03 06:00:08;;;;;;;6.87;2.33;;;;;;;;;;5029995;28;20087;-77
2023/02/03 06:02:34;;;;;;;7.60;1.83;;;;;;;;;;5043179;28;20032;-77
2023/02/03 06:05:00;;;;;;;10.90;2.23;;;;;;;;;;5040571;28;20037;-76
2023/02/03 06:07:25;;;;;;;8.80;2.73;;;;;;;;;;5039564;28;20109;-78
2023/02/03 06:09:55;;;;;;;12.43;1.87;;;;;;;;;;5042362;28;20768;-77
2023/02/03 06:12:21;;;;;;;7.53;2.00;;;;;;;;;;5026399;28;20110;-76
2023/02/03 06:14:46;;;;;;;10.57;2.67;;;;;;;;;;5039768;28;20884;-76
2023/02/03 06:17:12;;;;;;;7.03;1.80;;;;;;;;;;5044513;28;20030;-77
2023/02/03 06:19:38;;;;;;;14.70;2.50;;;;;;;;;;5044659;28;20374;-78
2023/02/03 06:22:07;;;;;;;11.97;2.50;;;;;;;;;;5046522;28;20025;-77
2023/02/03 06:24:33;;;;;;;9.63;1.70;;;;;;;;;;5044421;28;20029;-78
2023/02/03 06:26:59;;;;;;;11.07;2.40;;;;;;;;;;5029684;28;20087;-76
2023/02/03 06:29:25;;;;;;;10.07;1.97;;;;;;;;;;5044001;28;20466;-77
2023/02/03 06:31:50;;;;;;;11.10;2.17;;;;;;;;;;5045932;28;20335;-77
2023/02/03 06:34:16;;;;;;;11.23;2.77;;;;;;;;;;5043822;28;20068;-76
2023/02/03 06:36:42;;;;;;;6.77;1.40;;;;;;;;;;5046264;28;20435;-77
2023/02/03 06:39:08;;;;;;;9.13;2.10;;;;;;;;;;5045354;28;20050;-77
2023/02/03 06:41:34;;;;;;;11.57;2.00;;;;;;;;;;5043711;28;20033;-77
2023/02/03 06:44:00;;;;;;;10.47;2.20;;;;;;;;;;5045782;28;20067;-77
2023/02/03 06:46:28;;;;;;;8.90;1.87;;;;;;;;;;5027150;28;20038;-77
2023/02/03 06:48:55;;;;;;;7.17;1.67;;;;;;;;;;5041443;28;20037;-77
2023/02/03 06:51:23;;;;;;;7.60;1.63;;;;;;;;;;5045588;28;20037;-76
2023/02/03 06:53:49;;;;;;;11.43;3.20;;;;;;;;;;5046029;28;20030;-76
2023/02/03 06:56:15;;;;;;;5.57;1.70;;;;;;;;;;5044516;28;20040;-76
2023/02/03 06:58:41;;;;;;;9.30;1.57;;;;;;;;;;5031023;28;20036;-77
2023/02/03 07:01:07;;;;;;;12.23;2.50;;;;;;;;;;5044184;28;20136;-76
2023/02/03 07:03:33;;;;;;;10.43;1.60;;;;;;;;;;5042309;28;20132;-75
2023/02/03 07:05:59;;;;;;;10.10;1.90;;;;;;;;;;5043978;28;20422;-77
2023/02/03 07:08:25;;;;;;;8.90;2.37;;;;;;;;;;5044165;28;20033;-78
2023/02/03 07:10:55;;;;;;;10.47;2.07;;;;;;;;;;5042875;28;20484;-78
2023/02/03 07:13:23;;;;;;;9.73;1.90;;;;;;;;;;5043369;28;20064;-77
2023/02/03 07:15:49;;;;;;;6.47;1.37;;;;;;;;;;5026978;28;20029;-77
2023/02/03 07:18:16;;;;;;;7.27;1.50;;;;;;;;;;5042654;28;20091;-76
2023/02/03 07:20:42;;;;;;;10.07;2.13;;;;;;;;;;5027926;28;20037;-76
2023/02/03 07:23:11;;;;;;;7.00;2.00;;;;;;;;;;5043994;28;20084;-76
2023/02/03 07:25:37;;;;;;;13.90;2.43;;;;;;;;;;5042324;28;20568;-76
2023/02/03 07:28:03;;;;;;;10.30;2.10;;;;;;;;;;5043763;28;20041;-76
2023/02/03 07:30:29;;;;;;;12.90;2.33;;;;;;;;;;5042652;28;21617;-76
2023/02/03 07:32:55;;;;;;;12.60;1.70;;;;;;;;;;5026668;28;20041;-76
2023/02/03 07:35:21;;;;;;;11.03;2.07;;;;;;;;;;5041226;28;20044;-74
2023/02/03 07:37:49;;;;;;;4.47;1.50;;;;;;;;;;5041058;28;20144;-77
2023/02/03 07:40:16;;;;;;;6.37;1.50;;;;;;;;;;5044301;28;20044;-77
2023/02/03 07:42:42;;;;;;;9.30;1.83;;;;;;;;;;5043283;28;20347;-75
2023/02/03 07:45:09;;;;;;;9.53;1.37;;;;;;;;;;5044182;28;20175;-77
2023/02/03 07:47:35;;;;;;;6.83;1.20;;;;;;;;;;5041234;28;20034;-77
2023/02/03 07:50:01;;;;;;;10.43;2.20;;;;;;;;;;5025922;28;20435;-77
2023/02/03 07:52:27;;;;;;;6.87;1.60;;;;;;;;;;5044292;28;20021;-78
2023/02/03 07:54:55;;;;;;;7.70;1.50;;;;;;;;;;5043772;28;20040;-77
2023/02/03 07:57:21;;;;;;;7.07;1.50;;;;;;;;;;5043137;28;20026;-77
2023/02/03 07:59:47;;;;;;;8.63;1.60;;;;;;;;;;5026074;28;20029;-75
2023/02/03 08:02:13;;;;;;;9.00;1.53;;;;;;;;;;5025124;28;20516;-77
2023/02/03 08:04:39;;;;;;;4.63;1.37;;;;;;;;;;5042095;28;20108;-77
2023/02/03 08:07:05;;;;;;;6.70;1.97;;;;;;;;;;5041931;28;20104;-77
2023/02/03 08:09:31;;;;;;;5.80;1.50;;;;;;;;;;5042003;28;20423;-77
2023/02/03 08:11:57;;;;;;;4.87;1.23;;;;;;;;;;5042318;28;20039;-78
2023/02/03 08:14:23;;;;;;;6.43;1.27;;;;;;;;;;5042272;28;20115;-76
2023/02/03 08:16:49;;;;;;;4.73;1.17;;;;;;;;;;5026496;28;20053;-77
2023/02/03 08:19:15;;;;;;;7.43;1.50;;;;;;;;;;5042984;28;20021;-76
2023/02/03 08:21:41;;;;;;;6.63;1.60;;;;;;;;;;5042675;28;20038;-77
2023/02/03 08:24:07;;;;;;;6.00;1.03;;;;;;;;;;5041677;28;20029;-78
2023/02/03 08:26:36;;;;;;;5.90;1.60;;;;;;;;;;5042650;28;20041;-77
2023/02/03 08:29:02;;;;;;;6.10;0.70;;;;;;;;;;5040652;28;20033;-79
2023/02/03 08:31:28;;;;;;;7.93;1.57;;;;;;;;;;5042084;28;20026;-78
2023/02/03 08:33:54;;;;;;;5.60;0.70;;;;;;;;;;5039632;28;20025;-77
2023/02/03 08:36:20;;;;;;;6.53;0.97;;;;;;;;;;5040901;28;20163;-76
2023/02/03 08:38:46;;;;;;;4.47;1.07;;;;;;;;;;5024400;28;20029;-78
2023/02/03 08:41:13;;;;;;;9.97;1.57;;;;;;;;;;5042523;28;20063;-76
2023/02/03 08:43:39;;;;;;;6.87;1.37;;;;;;;;;;5048193;28;20071;-77
2023/02/03 08:46:09;;;;;;;7.73;1.43;;;;;;;;;;5056671;28;20033;-77
2023/02/03 08:48:35;;;;;;;5.77;1.40;;;;;;;;;;5041599;28;20033;-77
2023/02/03 08:51:01;;;;;;;6.83;1.83;;;;;;;;;;5034857;28;20040;-76
2023/02/03 08:53:27;;;;;;;4.20;1.30;;;;;;;;;;5037329;28;20025;-76
2023/02/03 08:55:55;;;;;;;3.07;2.03;;;;;;;;;;5063914;28;20064;-76
2023/02/03 08:58:21;;;;;;;7.90;2.00;;;;;;;;;;5035190;28;20025;-76
2023/02/03 09:00:48;;;;;;;4.03;1.57;;;;;;;;;;5033934;28;20128;-76
2023/02/03 09:03:14;;;;;;;5.77;1.70;;;;;;;;;;5034720;28;20026;-76
2023/02/03 09:05:40;;;;;;;4.67;1.10;;;;;;;;;;5034379;28;20508;-76
2023/02/03 09:08:06;;;;;;;4.90;1.67;;;;;;;;;;5040944;28;20104;-77
2023/02/03 09:10:32;;;;;;;11.23;1.60;;;;;;;;;;5056389;28;20672;-77
2023/02/03 09:12:58;;;;;;;3.93;1.43;;;;;;;;;;5064160;28;20075;-76
2023/02/03 09:15:25;;;;;;;7.87;1.70;;;;;;;;;;5053373;28;20057;-76
2023/02/03 09:17:51;;;;;;;6.07;1.60;;;;;;;;;;5033949;28;20075;-76
2023/02/03 09:20:17;;;;;;;7.77;2.03;;;;;;;;;;5045426;28;20030;-76
2023/02/03 09:22:43;;;;;;;5.70;1.43;;;;;;;;;;5034234;28;20454;-77
2023/02/03 09:25:09;;;;;;;6.40;1.73;;;;;;;;;;5034761;28;20036;-75
2023/02/03 09:27:34;;;;;;;3.07;1.20;;;;;;;;;;5034618;28;20478;-77
2023/02/03 09:30:00;;;;;;;7.33;1.50;;;;;;;;;;5034771;28;20037;-76
2023/02/03 09:32:26;;;;;;;5.90;1.63;;;;;;;;;;5033836;28;20021;-77
2023/02/03 09:34:52;;;;;;;13.07;1.90;;;;;;;;;;5033757;28;20186;-76
2023/02/03 09:37:18;;;;;;;9.17;1.77;;;;;;;;;;5035025;28;20022;-76
2023/02/03 09:39:44;;;;;;;7.90;1.67;;;;;;;;;;5034895;28;20030;-76
2023/02/03 09:42:27;;;;;;;4.03;1.37;;;;;;;;;;5051493;28;20033;-76
2023/02/03 09:45:08;;;;;;;5.30;1.50;;;;;;;;;;5041865;28;20481;-76
2023/02/03 09:47:36;;;;;;;6.43;1.50;;;;;;;;;;5028941;28;20094;-76
2023/02/03 09:50:04;;;;;;;6.33;1.40;;;;;;;;;;5036443;28;20030;-77
2023/02/03 09:52:34;;;;;;;5.90;1.37;;;;;;;;;;5050983;28;20031;-76
2023/02/03 09:55:02;;;;;;;6.50;1.70;;;;;;;;;;5059360;28;20083;-77
2023/02/03 09:57:30;;;;;;;6.50;2.00;;;;;;;;;;5038161;28;20053;-76
2023/02/03 09:59:57;;;;;;;6.03;1.67;;;;;;;;;;5037142;28;20032;-76
2023/02/03 10:02:43;;;;;;;3.30;1.60;;;;;;;;;;5043350;28;20025;-76
2023/02/03 10:05:15;;;;;;;9.27;1.70;;;;;;;;;;5054831;28;20036;-77
2023/02/03 10:07:44;;;;;;;6.80;1.50;;;;;;;;;;5062391;28;20029;-77
2023/02/03 10:10:10;;;;;;;6.93;2.13;;;;;;;;;;5058894;28;20501;-77
2023/02/03 10:12:50;;;;;;;7.30;1.90;;;;;;;;;;5040265;28;20029;-76
2023/02/03 10:15:19;;;;;;;8.87;2.40;;;;;;;;;;5033791;28;20021;-76
2023/02/03 10:17:55;;;;;;;8.03;1.90;;;;;;;;;;5036435;28;20119;-76
2023/02/03 10:20:34;;;;;;;4.93;1.60;;;;;;;;;;5028821;28;20030;-76
2023/02/03 10:23:02;;;;;;;7.97;2.43;;;;;;;;;;5044003;28;20510;-77
2023/02/03 10:25:35;;;;;;;10.77;3.07;;;;;;;;;;5029072;28;20057;-75
2023/02/03 10:28:03;;;;;;;4.60;2.00;;;;;;;;;;5029993;28;20033;-75
2023/02/03 10:30:32;;;;;;;10.83;2.20;;;;;;;;;;5044059;28;20033;-76
2023/02/03 10:33:08;;;;;;;11.03;2.70;;;;;;;;;;5044914;28;20113;-76
2023/02/03 10:35:57;;;;;;;11.50;2.80;;;;;;;;;;5027638;28;20029;-76
2023/02/03 10:38:23;;;;;;;9.07;2.80;;;;;;;;;;5028464;28;20033;-75
2023/02/03 10:40:49;;;;;;;6.53;2.40;;;;;;;;;;5043058;28;20043;-76
2023/02/03 10:46:00;;;;;;;9.30;3.37;;;;;;;;;;5028440;28;20048;-75
2023/02/03 10:48:26;;;;;;;6.73;2.83;;;;;;;;;;5044709;28;20037;-76
2023/02/03 10:50:53;;;;;;;9.83;3.07;;;;;;;;;;5042232;28;21616;-76
2023/02/03 10:53:35;;;;;;;11.03;3.37;;;;;;;;;;5043817;28;20108;-76
2023/02/03 10:56:09;;;;;;;6.22;2.20;;;;;;;;;;5044280;28;20061;-75
2023/02/03 10:58:37;;;;;;;3.83;2.53;;;;;;;;;;5041762;28;20036;-75
2023/02/03 11:01:06;;;;;;;7.07;2.67;;;;;;;;;;5045193;28;20099;-77
2023/02/03 11:03:34;;;;;;;8.23;2.40;;;;;;;;;;5025982;28;20041;-75
2023/02/03 11:06:05;;;;;;;6.83;3.00;;;;;;;;;;5044152;28;20370;-76
2023/02/03 11:08:34;;;;;;;5.50;2.97;;;;;;;;;;5043833;28;20468;-76
2023/02/03 11:11:05;;;;;;;8.70;2.80;;;;;;;;;;5044490;28;20084;-75
2023/02/03 11:13:31;;;;;;;4.13;2.83;;;;;;;;;;5040895;28;20026;-75
2023/02/03 11:15:57;;;;;;;7.07;2.97;;;;;;;;;;5026434;28;20067;-76
2023/02/03 11:18:41;;;;;;;9.37;4.03;;;;;;;;;;5043321;28;20469;-75
2023/02/03 11:21:09;;;;;;;6.27;2.40;;;;;;;;;;5043751;28;20045;-75
2023/02/03 11:23:35;;;;;;;7.30;3.33;;;;;;;;;;5044949;28;20030;-76
2023/02/03 11:26:09;;;;;;;8.57;3.30;;;;;;;;;;5043370;28;20076;-76
2023/02/03 11:28:40;;;;;;;8.03;3.33;;;;;;;;;;5042120;28;20052;-76
2023/02/03 11:31:15;;;;;;;8.77;4.13;;;;;;;;;;5041760;28;20033;-76
2023/02/03 11:33:41;;;;;;;5.60;3.90;;;;;;;;;;5042845;28;20040;-76
2023/02/03 11:36:12;;;;;;;9.30;4.60;;;;;;;;;;5042526;28;20121;-75
2023/02/03 11:38:42;;;;;;;9.77;4.72;;;;;;;;;;5027122;28;20029;-75
2023/02/03 11:41:15;;;;;;;12.20;4.53;;;;;;;;;;5043292;28;20052;-76
2023/02/03 11:43:44;;;;;;;5.73;4.07;;;;;;;;;;5025366;28;20097;-76
2023/02/03 11:46:13;;;;;;;11.17;5.10;;;;;;;;;;5040477;28;20034;-76
2023/02/03 11:48:49;;;;;;;9.67;5.10;;;;;;;;;;5042080;28;20107;-76
2023/02/03 11:51:34;;;;;;;9.30;5.50;;;;;;;;;;5025030;28;20115;-75
2023/02/03 11:54:13;;;;;;;11.40;4.07;;;;;;;;;;5045184;28;20021;-76
2023/02/03 11:57:00;;;;;;;9.73;4.90;;;;;;;;;;5041317;28;20022;-76
2023/02/03 11:59:45;;;;;;;12.60;5.57;;;;;;;;;;5042574;28;20083;-75
2023/02/03 12:02:14;;;;;;;7.57;5.43;;;;;;;;;;5042953;28;20033;-76
2023/02/03 12:04:59;;;;;;;7.90;5.03;;;;;;;;;;5024624;28;20229;-75
2023/02/03 12:07:25;;;;;;;8.80;5.53;;;;;;;;;;5026246;28;20060;-74
2023/02/03 12:09:54;;;;;;;11.23;6.43;;;;;;;;;;5041490;28;20439;-76
2023/02/03 12:12:29;;;;;;;11.07;5.70;;;;;;;;;;5041383;28;20037;-77
2023/02/03 12:15:14;;;;;;;9.70;5.93;;;;;;;;;;5024202;28;20037;-76
2023/02/03 12:17:45;;;;;;;12.70;6.40;;;;;;;;;;5041560;28;20037;-75
2023/02/03 12:20:23;;;;;;;10.67;6.07;;;;;;;;;;5043612;28;20022;-77
2023/02/03 12:23:06;;;;;;;8.47;6.23;;;;;;;;;;5040231;28;20501;-75
2023/02/03 12:25:50;;;;;;;13.52;5.68;;;;;;;;;;5044875;28;20029;-76
2023/02/03 12:28:37;;;;;;;9.30;5.97;;;;;;;;;;5042173;28;20025;-75
2023/02/03 12:31:26;;;;;;;12.93;6.40;;;;;;;;;;5024764;28;20100;-76
2023/02/03 12:33:56;;;;;;;11.00;6.13;;;;;;;;;;5042796;28;20094;-75
2023/02/03 12:36:26;;;;;;;12.53;7.37;;;;;;;;;;5024051;28;20037;-76
2023/02/03 12:38:58;;;;;;;11.10;6.70;;;;;;;;;;5027219;28;20033;-75
2023/02/03 12:41:36;;;;;;;12.35;6.97;;;;;;;;;;5040379;28;20040;-77
2023/02/03 12:44:06;;;;;;;15.10;7.20;;;;;;;;;;5041191;28;20101;-76
2023/02/03 12:46:35;;;;;;;10.27;6.97;;;;;;;;;;5025020;28;20030;-76
2023/02/03 12:49:01;;;;;;;11.37;7.23;;;;;;;;;;5043345;28;20040;-76
2023/02/03 12:51:34;;;;;;;15.20;7.57;;;;;;;;;;5040165;28;20041;-77
2023/02/03 12:54:19;;;;;;;11.23;7.80;;;;;;;;;;5023327;28;20030;-76
2023/02/03 12:56:46;;;;;;;12.40;7.30;;;;;;;;;;5021936;28;20498;-77
2023/02/03 12:59:15;;;;;;;9.47;7.43;;;;;;;;;;5026605;28;20025;-77
2023/02/03 13:01:45;;;;;;;12.30;8.17;;;;;;;;;;5026497;28;20476;-76
2023/02/03 13:04:11;;;;;;;14.17;7.63;;;;;;;;;;5039021;28;20045;-76
2023/02/03 13:06:52;;;;;;;15.00;7.67;;;;;;;;;;5027055;28;20037;-76
2023/02/03 13:09:21;;;;;;;16.67;8.20;;;;;;;;;;5040708;28;20099;-75
2023/02/03 13:11:57;;;;;;;12.57;8.20;;;;;;;;;;5025155;28;20030;-76
2023/02/03 13:14:26;;;;;;;15.57;7.77;;;;;;;;;;5042116;28;20033;-75
2023/02/03 13:17:00;;;;;;;14.33;8.93;;;;;;;;;;5041362;28;21608;-76
2023/02/03 13:19:28;;;;;;;16.03;8.67;;;;;;;;;;5040914;28;20080;-75
2023/02/03 13:21:57;;;;;;;15.10;8.13;;;;;;;;;;5039374;28;20034;-75
2023/02/03 13:24:24;;;;;;;14.47;8.43;;;;;;;;;;5040630;28;20068;-75
2023/02/03 13:26:58;;;;;;;16.70;10.60;;;;;;;;;;5041531;28;20037;-76
2023/02/03 13:29:42;;;;;;;14.00;9.10;;;;;;;;;;5042895;28;20115;-76
2023/02/03 13:32:17;;;;;;;22.27;10.73;;;;;;;;;;5040812;28;20068;-75
2023/02/03 13:34:46;;;;;;;21.70;10.90;;;;;;;;;;5041670;28;20034;-75
2023/02/03 13:37:37;;;;;;;18.93;11.97;;;;;;;;;;5038121;28;20034;-75
2023/02/03 13:40:03;;;;;;;19.07;11.80;;;;;;;;;;5041280;28;20117;-76
2023/02/03 13:42:30;;;;;;;15.67;11.50;;;;;;;;;;5038204;28;20120;-76
2023/02/03 13:44:59;;;;;;;29.17;12.60;;;;;;;;;;5025418;28;20029;-75
2023/02/03 13:47:28;;;;;;;22.00;12.20;;;;;;;;;;5038762;28;20923;-76
2023/02/03 13:50:01;;;;;;;19.67;12.47;;;;;;;;;;5043594;28;20033;-76
2023/02/03 13:52:33;;;;;;;20.33;13.83;;;;;;;;;;5039489;28;20057;-75
2023/02/03 13:55:00;;;;;;;23.52;13.13;;;;;;;;;;5042009;28;20029;-77
2023/02/03 13:57:39;;;;;;;18.90;12.37;;;;;;;;;;5023525;28;20029;-75
2023/02/03 14:00:08;;;;;;;20.90;12.53;;;;;;;;;;5040949;28;20025;-76
2023/02/03 14:02:46;;;;;;;20.37;12.07;;;;;;;;;;5039346;28;20042;-76
2023/02/03 14:05:31;;;;;;;20.83;11.57;;;;;;;;;;5021859;28;20473;-77
2023/02/03 14:07:57;;;;;;;23.77;11.47;;;;;;;;;;5026706;28;20040;-76
2023/02/03 14:10:23;;;;;;;17.47;9.53;;;;;;;;;;5039637;28;20045;-75
2023/02/03 14:12:49;;;;;;;19.30;10.47;;;;;;;;;;5039173;28;20036;-76
2023/02/03 14:15:24;;;;;;;20.90;11.77;;;;;;;;;;5027298;28;20025;-77
2023/02/03 14:18:01;;;;;;;20.97;11.27;;;;;;;;;;5043373;28;20438;-75
2023/02/03 14:20:26;;;;;;;23.53;11.83;;;;;;;;;;5044486;28;20045;-76
2023/02/03 14:22:56;;;;;;;23.40;10.20;;;;;;;;;;5025419;28;20033;-76
2023/02/03 14:25:23;;;;;;;20.37;9.97;;;;;;;;;;5040061;28;21633;-76
2023/02/03 14:27:58;;;;;;;19.73;10.30;;;;;;;;;;5039632;28;20029;-77
2023/02/03 14:30:24;;;;;;;17.43;9.40;;;;;;;;;;5029400;28;20034;-77
2023/02/03 14:32:55;;;;;;;14.73;9.13;;;;;;;;;;5039909;28;20029;-75
2023/02/03 14:35:34;;;;;;;18.50;6.90;;;;;;;;;;5041160;28;20030;-76
2023/02/03 14:38:02;;;;;;;17.53;7.40;;;;;;;;;;5044404;28;20029;-75
2023/02/03 14:40:40;;;;;;;15.67;6.63;;;;;;;;;;5042532;28;20497;-76
2023/02/03 14:43:25;;;;;;;11.77;7.30;;;;;;;;;;5048859;28;20033;-75
2023/02/03 14:46:00;;;;;;;15.37;6.20;;;;;;;;;;5036764;28;20082;-76
2023/02/03 14:48:29;;;;;;;19.00;6.30;;;;;;;;;;5036386;28;20029;-77
2023/02/03 14:51:02;;;;;;;18.50;6.23;;;;;;;;;;5052600;28;20119;-76
2023/02/03 14:54:00;;;;;;;14.93;6.85;;;;;;;;;;5036856;28;20040;-77